sensor_id;sensor_type;location;lat;lon;timestamp;P1;durP1;ratioP1;P2;durP2;ratioP2
43690;SDS011;29293;52.190;21.226;2023-03-11T00:14:01;36.10;;;18.40;;
43690;SDS011;29293;52.190;21.226;2023-03-11T00:29:08;36.90;;;19.00;;
43690;SDS011;29293;52.190;21.226;2023-03-11T00:44:15;32.20;;;19.00;;
43690;SDS011;29293;52.190;21.226;2023-03-11T00:59:22;33.30;;;17.90;;
43690;SDS011;29293;52.190;21.226;2023-03-11T01:14:30;30.50;;;15.70;;
43690;SDS011;29293;52.190;21.226;2023-03-11T01:29:36;24.10;;;13.70;;
43690;SDS011;29293;52.190;21.226;2023-03-11T01:44:43;22.40;;;13.30;;
43690;SDS011;29293;52.190;21.226;2023-03-11T01:59:51;21.30;;;12.50;;
43690;SDS011;29293;52.190;21.226;2023-03-11T02:15:00;22.70;;;12.20;;
43690;SDS011;29293;52.190;21.226;2023-03-11T02:45:24;22.20;;;12.50;;
43690;SDS011;29293;52.190;21.226;2023-03-11T03:00:33;21.00;;;12.90;;
43690;SDS011;29293;52.190;21.226;2023-03-11T03:15:40;23.30;;;12.70;;
43690;SDS011;29293;52.190;21.226;2023-03-11T03:30:47;24.90;;;13.70;;
43690;SDS011;29293;52.190;21.226;2023-03-11T03:45:57;28.00;;;14.10;;
43690;SDS011;29293;52.190;21.226;2023-03-11T04:01:06;27.60;;;14.70;;
43690;SDS011;29293;52.190;21.226;2023-03-11T04:16:16;25.70;;;14.30;;
43690;SDS011;29293;52.190;21.226;2023-03-11T04:31:24;20.60;;;13.10;;
43690;SDS011;29293;52.190;21.226;2023-03-11T04:46:31;21.50;;;13.70;;
43690;SDS011;29293;52.190;21.226;2023-03-11T05:01:38;24.70;;;14.80;;
43690;SDS011;29293;52.190;21.226;2023-03-11T05:16:45;27.20;;;15.10;;
43690;SDS011;29293;52.190;21.226;2023-03-11T05:31:52;24.60;;;13.70;;
43690;SDS011;29293;52.190;21.226;2023-03-11T05:46:59;23.10;;;13.60;;
43690;SDS011;29293;52.190;21.226;2023-03-11T06:02:06;27.70;;;15.10;;
43690;SDS011;29293;52.190;21.226;2023-03-11T06:17:13;28.20;;;14.30;;
43690;SDS011;29293;52.190;21.226;2023-03-11T06:32:20;25.90;;;13.10;;
43690;SDS011;29293;52.190;21.226;2023-03-11T06:47:27;19.00;;;11.30;;
43690;SDS011;29293;52.190;21.226;2023-03-11T07:02:34;17.80;;;10.50;;
43690;SDS011;29293;52.190;21.226;2023-03-11T07:17:40;18.00;;;10.20;;
43690;SDS011;29293;52.190;21.226;2023-03-11T07:32:47;12.50;;;8.60;;
43690;SDS011;29293;52.190;21.226;2023-03-11T07:47:54;14.50;;;9.30;;
43690;SDS011;29293;52.190;21.226;2023-03-11T08:03:02;18.20;;;11.90;;
43690;SDS011;29293;52.190;21.226;2023-03-11T08:18:09;19.90;;;13.60;;
43690;SDS011;29293;52.190;21.226;2023-03-11T08:33:15;16.00;;;12.10;;
43690;SDS011;29293;52.190;21.226;2023-03-11T08:48:22;16.40;;;11.80;;
43690;SDS011;29293;52.190;21.226;2023-03-11T09:03:31;15.20;;;11.40;;
43690;SDS011;29293;52.190;21.226;2023-03-11T09:18:39;22.90;;;15.00;;
43690;SDS011;29293;52.190;21.226;2023-03-11T09:33:46;21.50;;;14.80;;
43690;SDS011;29293;52.190;21.226;2023-03-11T09:48:56;22.30;;;15.40;;
43690;SDS011;29293;52.190;21.226;2023-03-11T10:04:10;25.30;;;16.80;;
43690;SDS011;29293;52.190;21.226;2023-03-11T10:19:23;43.10;;;25.30;;
43690;SDS011;29293;52.190;21.226;2023-03-11T10:34:39;37.00;;;21.60;;
43690;SDS011;29293;52.190;21.226;2023-03-11T10:49:51;45.30;;;23.90;;
43690;SDS011;29293;52.190;21.226;2023-03-11T11:05:22;20.70;;;11.50;;
43690;SDS011;29293;52.190;21.226;2023-03-11T11:20:33;12.00;;;7.60;;
43690;SDS011;29293;52.190;21.226;2023-03-11T11:35:48;11.70;;;8.90;;
43690;SDS011;29293;52.190;21.226;2023-03-11T11:50:58;7.90;;;5.90;;
43690;SDS011;29293;52.190;21.226;2023-03-11T12:06:15;8.40;;;5.90;;
43690;SDS011;29293;52.190;21.226;2023-03-11T12:21:34;8.90;;;6.50;;
43690;SDS011;29293;52.190;21.226;2023-03-11T12:36:56;9.40;;;6.60;;
43690;SDS011;29293;52.190;21.226;2023-03-11T12:52:17;9.00;;;7.20;;
43690;SDS011;29293;52.190;21.226;2023-03-11T13:07:39;10.30;;;7.20;;
43690;SDS011;29293;52.190;21.226;2023-03-11T13:38:35;12.60;;;7.80;;
43690;SDS011;29293;52.190;21.226;2023-03-11T13:53:50;12.70;;;8.00;;
43690;SDS011;29293;52.190;21.226;2023-03-11T14:09:02;13.70;;;9.50;;
43690;SDS011;29293;52.190;21.226;2023-03-11T14:24:14;13.50;;;8.60;;
43690;SDS011;29293;52.190;21.226;2023-03-11T14:39:24;15.90;;;9.10;;
43690;SDS011;29293;52.190;21.226;2023-03-11T14:54:32;12.30;;;7.00;;
43690;SDS011;29293;52.190;21.226;2023-03-11T15:09:41;9.60;;;5.50;;
43690;SDS011;29293;52.190;21.226;2023-03-11T15:24:49;9.60;;;5.40;;
43690;SDS011;29293;52.190;21.226;2023-03-11T15:40:08;10.20;;;5.10;;
43690;SDS011;29293;52.190;21.226;2023-03-11T15:55:17;8.70;;;4.80;;
43690;SDS011;29293;52.190;21.226;2023-03-11T16:10:25;7.30;;;3.90;;
43690;SDS011;29293;52.190;21.226;2023-03-11T16:25:33;9.50;;;4.60;;
43690;SDS011;29293;52.190;21.226;2023-03-11T16:40:42;10.10;;;5.20;;
43690;SDS011;29293;52.190;21.226;2023-03-11T16:55:49;10.90;;;5.10;;
43690;SDS011;29293;52.190;21.226;2023-03-11T17:10:56;10.00;;;4.30;;
43690;SDS011;29293;52.190;21.226;2023-03-11T17:26:06;8.50;;;4.10;;
43690;SDS011;29293;52.190;21.226;2023-03-11T17:41:14;9.40;;;4.70;;
43690;SDS011;29293;52.190;21.226;2023-03-11T17:56:22;10.80;;;4.50;;
43690;SDS011;29293;52.190;21.226;2023-03-11T18:11:29;12.00;;;5.70;;
43690;SDS011;29293;52.190;21.226;2023-03-11T18:26:36;11.30;;;5.60;;
43690;SDS011;29293;52.190;21.226;2023-03-11T18:41:43;11.80;;;5.00;;
43690;SDS011;29293;52.190;21.226;2023-03-11T18:56:50;8.80;;;4.50;;
43690;SDS011;29293;52.190;21.226;2023-03-11T19:11:56;7.60;;;4.10;;
43690;SDS011;29293;52.190;21.226;2023-03-11T19:42:09;8.80;;;4.70;;
43690;SDS011;29293;52.190;21.226;2023-03-11T19:57:16;12.30;;;5.10;;
43690;SDS011;29293;52.190;21.226;2023-03-11T20:12:23;8.80;;;4.60;;
43690;SDS011;29293;52.190;21.226;2023-03-11T20:27:30;9.70;;;3.70;;
43690;SDS011;29293;52.190;21.226;2023-03-11T20:42:36;12.40;;;4.10;;
43690;SDS011;29293;52.190;21.226;2023-03-11T20:57:45;10.70;;;3.80;;
43690;SDS011;29293;52.190;21.226;2023-03-11T21:12:52;12.80;;;3.80;;
43690;SDS011;29293;52.190;21.226;2023-03-11T21:27:59;12.20;;;5.10;;
43690;SDS011;29293;52.190;21.226;2023-03-11T21:43:06;13.80;;;6.60;;
43690;SDS011;29293;52.190;21.226;2023-03-11T21:58:13;13.40;;;6.40;;
43690;SDS011;29293;52.190;21.226;2023-03-11T22:13:20;16.10;;;6.90;;
43690;SDS011;29293;52.190;21.226;2023-03-11T22:28:27;13.40;;;6.20;;
43690;SDS011;29293;52.190;21.226;2023-03-11T22:43:35;17.60;;;7.90;;
43690;SDS011;29293;52.190;21.226;2023-03-11T22:58:42;13.30;;;6.50;;
43690;SDS011;29293;52.190;21.226;2023-03-11T23:13:50;17.70;;;7.00;;
43690;SDS011;29293;52.190;21.226;2023-03-11T23:28:56;19.90;;;7.70;;
43690;SDS011;29293;52.190;21.226;2023-03-11T23:44:04;18.80;;;7.90;;
43690;SDS011;29293;52.190;21.226;2023-03-11T23:59:11;12.80;;;6.00;;
